createdAt,value
2019-02-27T00:01:33.956Z,98.50
2019-02-27T00:02:29.962Z,91.80
2019-02-27T00:04:26.602Z,98.50
2019-02-27T00:05:24.709Z,91.80
2019-02-27T00:07:20.994Z,98.30
2019-02-27T00:08:20.194Z,91.70
2019-02-27T00:10:15.355Z,98.30
2019-02-27T00:11:14.195Z,92.00
2019-02-27T00:13:09.731Z,98.20
2019-02-27T00:14:07.943Z,91.70
2019-02-27T00:16:03.583Z,98.10
2019-02-27T00:17:04.229Z,92.20
2019-02-27T00:19:05.542Z,98.10
2019-02-27T00:19:58.212Z,91.90
2019-02-27T00:21:59.018Z,98.00
2019-02-27T00:22:52.188Z,91.90
2019-02-27T00:24:54.061Z,97.90
2019-02-27T00:25:46.175Z,92.00
2019-02-27T00:27:49.313Z,98.00
2019-02-27T00:28:42.613Z,92.00
2019-02-27T00:30:48.727Z,97.90
2019-02-27T00:31:40.271Z,91.90
2019-02-27T00:33:44.004Z,97.70
2019-02-27T00:34:34.304Z,91.90
2019-02-27T00:36:36.709Z,97.80
2019-02-27T00:37:28.571Z,91.90
2019-02-27T00:39:31.341Z,97.70
2019-02-27T00:40:22.804Z,91.80
2019-02-27T00:42:33.100Z,97.70
2019-02-27T00:43:17.549Z,91.80
2019-02-27T00:45:21.672Z,97.70
2019-02-27T00:46:14.011Z,91.80
2019-02-27T00:48:14.997Z,97.70
2019-02-27T00:49:07.733Z,91.70
2019-02-27T00:51:09.666Z,97.60
2019-02-27T00:52:02.577Z,91.70
2019-02-27T00:54:02.364Z,97.60
2019-02-27T00:54:56.580Z,91.90
2019-02-27T00:56:59.895Z,97.50
2019-02-27T00:57:51.827Z,91.70
2019-02-27T00:59:53.788Z,97.50
2019-02-27T01:00:45.586Z,91.60
2019-02-27T01:02:53.494Z,97.40
2019-02-27T01:03:39.585Z,91.50
2019-02-27T01:05:45.783Z,97.30
2019-02-27T01:06:33.598Z,91.30
2019-02-27T01:08:39.552Z,97.30
2019-02-27T01:09:28.603Z,91.20
2019-02-27T01:11:33.399Z,97.20
2019-02-27T01:12:25.205Z,91.10
2019-02-27T01:14:26.130Z,97.20
2019-02-27T01:15:18.551Z,91.10
2019-02-27T01:17:24.904Z,97.20
2019-02-27T01:18:15.671Z,91.00
2019-02-27T01:20:18.805Z,97.20
2019-02-27T01:21:10.270Z,90.80
2019-02-27T01:23:12.587Z,97.00
2019-02-27T01:24:05.809Z,90.70
2019-02-27T01:26:06.376Z,96.90
2019-02-27T01:27:05.358Z,90.60
2019-02-27T01:29:02.781Z,96.90
2019-02-27T01:30:00.588Z,90.60
2019-02-27T01:31:57.673Z,96.80
2019-02-27T01:32:54.819Z,90.30
2019-02-27T01:34:54.907Z,96.70
2019-02-27T01:35:54.832Z,90.60
2019-02-27T01:38:00.197Z,96.70
2019-02-27T01:38:47.227Z,90.50
2019-02-27T01:40:55.183Z,96.60
2019-02-27T01:41:41.752Z,90.60
2019-02-27T01:43:49.240Z,96.50
2019-02-27T01:44:35.741Z,90.60
2019-02-27T01:46:42.992Z,96.30
2019-02-27T01:47:35.755Z,90.60
2019-02-27T01:49:37.167Z,96.10
2019-02-27T01:50:38.233Z,90.60
2019-02-27T01:52:33.955Z,95.90
2019-02-27T01:53:32.371Z,90.60
2019-02-27T01:55:25.355Z,95.80
2019-02-27T01:56:28.839Z,92.40
2019-02-27T01:58:19.642Z,95.60
2019-02-27T01:59:21.208Z,90.40
2019-02-27T02:01:12.922Z,95.50
2019-02-27T02:02:15.300Z,90.10
2019-02-27T02:04:20.011Z,95.40
2019-02-27T02:07:04.059Z,93.90
2019-02-27T02:09:59.692Z,88.70
2019-02-27T02:10:29.788Z,95.10
2019-02-27T02:13:04.354Z,90.20
2019-02-27T02:13:28.850Z,94.90
2019-02-27T02:16:34.426Z,95.10
2019-02-27T02:16:43.342Z,92.20
2019-02-27T02:19:54.165Z,94.70
2019-02-27T02:20:02.628Z,89.80
2019-02-27T02:23:17.764Z,94.40
2019-02-27T02:23:26.638Z,90.00
2019-02-27T02:26:28.883Z,94.40
2019-02-27T02:26:35.036Z,89.70
2019-02-27T02:29:52.982Z,94.10
2019-02-27T02:29:55.608Z,90.00
2019-02-27T02:32:52.076Z,94.10
2019-02-27T02:33:36.572Z,89.90
2019-02-27T02:35:58.454Z,94.10
2019-02-27T02:36:47.937Z,90.00
2019-02-27T02:39:18.425Z,94.40
2019-02-27T02:40:30.751Z,89.40
2019-02-27T02:42:26.592Z,94.50
2019-02-27T02:43:52.866Z,89.90
2019-02-27T02:45:21.557Z,94.20
2019-02-27T02:48:30.985Z,94.00
2019-02-27T02:51:00.502Z,89.40
2019-02-27T02:51:22.090Z,93.70
2019-02-27T02:54:38.134Z,89.50
2019-02-27T02:54:39.250Z,93.90
2019-02-27T02:58:04.307Z,93.90
2019-02-27T02:58:11.407Z,89.70
2019-02-27T03:01:05.491Z,93.80
2019-02-27T03:01:33.286Z,89.90
2019-02-27T03:04:23.301Z,93.30
2019-02-27T03:05:37.742Z,89.90
2019-02-27T03:07:45.911Z,93.40
2019-02-27T03:10:42.909Z,89.40
2019-02-27T03:11:09.968Z,93.60
2019-02-27T03:13:11.298Z,88.70
2019-02-27T03:14:17.573Z,93.50
2019-02-27T03:15:38.904Z,88.00
2019-02-27T03:17:31.366Z,93.40
2019-02-27T03:18:06.796Z,88.30
2019-02-27T03:20:34.276Z,88.30
2019-02-27T03:20:43.534Z,93.20
2019-02-27T03:23:02.278Z,88.30
2019-02-27T03:23:52.050Z,93.40
2019-02-27T03:27:03.341Z,87.80
2019-02-27T03:27:06.194Z,93.20
2019-02-27T03:29:31.023Z,87.50
2019-02-27T03:30:36.313Z,92.50
2019-02-27T03:32:00.945Z,87.60
2019-02-27T03:33:29.760Z,92.70
2019-02-27T03:34:28.410Z,87.40
2019-02-27T03:36:36.015Z,92.70
2019-02-27T03:36:56.011Z,86.20
2019-02-27T03:39:23.594Z,86.30
2019-02-27T03:40:10.662Z,92.70
2019-02-27T03:41:58.456Z,85.80
2019-02-27T03:43:11.487Z,92.80
2019-02-27T03:44:21.535Z,85.40
2019-02-27T03:46:10.987Z,91.70
2019-02-27T03:46:49.296Z,85.10
2019-02-27T03:49:16.957Z,83.90
2019-02-27T03:49:28.442Z,90.70
2019-02-27T03:51:44.219Z,84.50
2019-02-27T03:52:41.228Z,91.30
2019-02-27T03:55:43.058Z,91.60
2019-02-27T03:58:49.893Z,90.50
2019-02-27T04:01:10.778Z,84.70
2019-02-27T04:02:05.872Z,90.80
2019-02-27T04:05:06.936Z,90.80
2019-02-27T04:05:54.880Z,84.80
2019-02-27T04:08:12.680Z,88.10
2019-02-27T04:08:14.746Z,84.40
2019-02-27T04:09:47.430Z,84.10
2019-02-27T04:11:16.054Z,90.80
2019-02-27T04:11:24.301Z,84.10
2019-02-27T04:13:01.043Z,83.70
2019-02-27T04:14:41.799Z,84.20
2019-02-27T04:16:18.667Z,84.10
2019-02-27T04:17:52.252Z,83.90
2019-02-27T04:18:17.504Z,89.10
2019-02-27T04:19:27.985Z,83.80
2019-02-27T04:21:04.357Z,84.00
2019-02-27T04:21:57.735Z,90.50
2019-02-27T04:22:46.881Z,83.50
2019-02-27T04:24:23.120Z,83.40
2019-02-27T04:24:30.549Z,85.80
2019-02-27T04:26:05.409Z,83.30
2019-02-27T04:27:28.184Z,90.50
2019-02-27T04:27:39.036Z,83.10
2019-02-27T04:29:11.862Z,83.60
2019-02-27T04:30:26.632Z,90.00
2019-02-27T04:30:51.952Z,83.60
2019-02-27T04:32:29.635Z,84.10
2019-02-27T04:33:31.606Z,90.20
2019-02-27T04:34:06.287Z,83.90
2019-02-27T04:35:44.903Z,83.80
2019-02-27T04:36:33.432Z,84.90
2019-02-27T04:37:21.036Z,83.80
2019-02-27T04:38:56.397Z,83.50
2019-02-27T04:39:26.545Z,89.90
2019-02-27T04:40:44.156Z,84.20
2019-02-27T04:42:25.737Z,85.50
2019-02-27T04:42:32.986Z,84.30
2019-02-27T04:44:10.268Z,84.30
2019-02-27T04:45:23.782Z,84.40
2019-02-27T04:45:46.885Z,84.10
2019-02-27T04:47:28.718Z,84.40
2019-02-27T04:48:24.117Z,83.50
2019-02-27T04:49:05.843Z,83.80
2019-02-27T04:50:45.648Z,84.40
2019-02-27T04:51:18.976Z,83.40
2019-02-27T04:52:19.355Z,82.60
2019-02-27T04:54:00.763Z,82.60
2019-02-27T04:54:18.272Z,82.60
2019-02-27T04:55:33.893Z,82.60
2019-02-27T04:57:06.765Z,82.40
2019-02-27T04:57:18.232Z,86.80
2019-02-27T04:58:44.409Z,82.70
2019-02-27T05:00:17.060Z,86.70
2019-02-27T05:00:17.579Z,82.60
2019-02-27T05:01:53.609Z,82.40
2019-02-27T05:03:13.361Z,83.40
2019-02-27T05:03:32.219Z,82.40
2019-02-27T05:05:10.937Z,82.30
2019-02-27T05:06:08.080Z,82.10
2019-02-27T05:06:46.945Z,82.30
2019-02-27T05:08:27.020Z,82.30
2019-02-27T05:09:08.797Z,77.90
2019-02-27T05:10:02.360Z,82.20
2019-02-27T05:11:40.602Z,82.30
2019-02-27T05:12:06.635Z,79.70
2019-02-27T05:13:20.469Z,81.80
2019-02-27T05:14:55.885Z,82.30
2019-02-27T05:15:04.201Z,77.30
2019-02-27T05:16:27.770Z,82.40
2019-02-27T05:17:58.813Z,78.30
2019-02-27T05:18:12.430Z,82.50
2019-02-27T05:19:52.026Z,82.50
2019-02-27T05:20:55.890Z,81.00
2019-02-27T05:21:46.566Z,82.40
2019-02-27T05:23:18.155Z,82.70
2019-02-27T05:23:49.706Z,80.50
2019-02-27T05:24:58.843Z,82.10
2019-02-27T05:26:37.858Z,82.40
2019-02-27T05:26:50.377Z,82.70
2019-02-27T05:28:22.327Z,82.50
2019-02-27T05:29:44.667Z,79.10
2019-02-27T05:29:59.986Z,82.20
2019-02-27T05:31:50.187Z,82.20
2019-02-27T05:32:43.187Z,78.80
2019-02-27T05:33:22.672Z,82.10
2019-02-27T05:34:56.381Z,80.70
2019-02-27T05:35:57.870Z,78.20
2019-02-27T05:36:34.347Z,81.00
2019-02-27T05:38:13.332Z,80.70
2019-02-27T05:38:53.468Z,76.50
2019-02-27T05:39:44.933Z,80.40
2019-02-27T05:41:33.258Z,80.60
2019-02-27T05:41:50.287Z,81.80
2019-02-27T05:43:03.887Z,80.30
2019-02-27T05:44:46.172Z,75.80
2019-02-27T05:45:15.120Z,81.00
2019-02-27T05:46:48.138Z,80.70
2019-02-27T05:47:44.668Z,81.40
2019-02-27T05:48:50.937Z,80.70
2019-02-27T05:51:02.093Z,80.60
2019-02-27T05:53:07.353Z,82.30
2019-02-27T05:53:51.002Z,78.40
2019-02-27T05:56:09.876Z,79.50
2019-02-27T05:56:49.622Z,79.20
2019-02-27T05:59:23.565Z,77.40
2019-02-27T05:59:45.292Z,72.80
2019-02-27T06:02:21.403Z,75.90
2019-02-27T06:02:45.055Z,76.10
2019-02-27T06:05:16.619Z,76.90
2019-02-27T06:05:39.884Z,75.90
2019-02-27T06:08:12.435Z,77.70
2019-02-27T06:08:37.999Z,69.80
2019-02-27T06:11:07.758Z,76.60
2019-02-27T06:11:33.068Z,69.50
2019-02-27T06:14:03.287Z,76.20
2019-02-27T06:14:25.893Z,68.00
2019-02-27T06:17:26.239Z,68.50
2019-02-27T06:19:01.253Z,75.90
2019-02-27T06:20:24.639Z,68.10
2019-02-27T06:21:59.409Z,76.30
2019-02-27T06:23:20.330Z,68.60
2019-02-27T06:25:14.205Z,75.20
2019-02-27T06:26:13.997Z,68.50
2019-02-27T06:28:04.288Z,75.30
2019-02-27T06:29:15.531Z,68.90
2019-02-27T06:31:02.450Z,75.30
2019-02-27T06:32:12.172Z,73.20
2019-02-27T06:35:08.639Z,70.90
2019-02-27T06:35:09.761Z,75.70
2019-02-27T06:38:05.923Z,73.40
2019-02-27T06:38:06.702Z,76.70
2019-02-27T06:41:03.159Z,76.10
2019-02-27T06:41:04.564Z,72.50
2019-02-27T06:44:03.115Z,70.70
2019-02-27T06:46:59.887Z,70.80
2019-02-27T06:49:56.757Z,71.00
2019-02-27T06:52:49.916Z,72.30
2019-02-27T06:55:43.895Z,75.00
2019-02-27T06:58:37.199Z,74.60
2019-02-27T07:01:31.118Z,74.00
2019-02-27T07:04:26.842Z,75.00
2019-02-27T07:07:20.053Z,74.30
2019-02-27T07:10:19.460Z,75.10
2019-02-27T07:13:11.607Z,76.40
2019-02-27T07:16:05.400Z,77.40
2019-02-27T07:19:07.484Z,76.20
2019-02-27T07:20:21.411Z,78.00
2019-02-27T07:22:06.233Z,76.70
2019-02-27T07:24:59.249Z,77.60
2019-02-27T07:27:53.998Z,77.00
2019-02-27T07:31:00.882Z,75.90
2019-02-27T07:33:56.658Z,77.20
2019-02-27T07:36:51.493Z,75.50
2019-02-27T07:39:45.525Z,74.90
2019-02-27T07:42:42.118Z,74.20
2019-02-27T07:45:42.687Z,76.60
2019-02-27T07:48:33.818Z,76.90
2019-02-27T07:51:28.431Z,72.10
2019-02-27T07:54:28.831Z,71.70
2019-02-27T07:57:19.380Z,70.00
2019-02-27T08:00:23.484Z,63.50
2019-02-27T08:03:19.445Z,62.60
2019-02-27T08:06:13.187Z,62.90
2019-02-27T08:09:07.869Z,68.20
2019-02-27T08:12:01.826Z,68.10
2019-02-27T08:14:56.231Z,65.50
2019-02-27T08:17:50.444Z,64.50
2019-02-27T08:20:48.014Z,68.00
2019-02-27T08:23:43.082Z,67.90
2019-02-27T08:26:37.050Z,70.70
2019-02-27T08:29:30.571Z,70.90
2019-02-27T08:32:25.495Z,70.30
2019-02-27T08:35:18.644Z,70.70
2019-02-27T08:38:15.345Z,71.10
2019-02-27T08:41:08.901Z,70.80
2019-02-27T08:44:03.295Z,71.60
2019-02-27T08:47:04.313Z,72.10
2019-02-27T08:49:59.143Z,72.50
2019-02-27T08:52:52.555Z,72.00
2019-02-27T08:55:46.277Z,72.80
2019-02-27T08:58:39.883Z,72.80
2019-02-27T09:01:33.272Z,72.40
2019-02-27T09:04:27.020Z,72.40
2019-02-27T09:07:20.074Z,74.00
2019-02-27T09:10:15.327Z,71.00
2019-02-27T09:13:08.223Z,71.00
2019-02-27T09:16:23.031Z,71.70
2019-02-27T09:19:15.803Z,72.10
2019-02-27T09:22:19.482Z,72.30
2019-02-27T09:25:13.299Z,72.40
2019-02-27T09:28:09.446Z,72.30
2019-02-27T09:31:04.296Z,74.50
2019-02-27T09:34:04.963Z,73.90
2019-02-27T09:40:39.752Z,73.10
2019-02-27T09:43:35.976Z,73.60
2019-02-27T09:46:43.305Z,73.40
2019-02-27T09:49:30.741Z,73.90
2019-02-27T09:52:24.434Z,76.00
2019-02-27T09:55:20.869Z,77.20
2019-02-27T09:58:16.631Z,84.20
2019-02-27T10:03:19.848Z,75.30
2019-02-27T10:05:52.180Z,74.80
2019-02-27T10:08:28.910Z,75.30
2019-02-27T10:11:02.990Z,74.90
2019-02-27T10:13:41.355Z,75.30
2019-02-27T10:16:56.320Z,75.70
2019-02-27T10:19:06.031Z,84.50
2019-02-27T10:21:45.422Z,76.40
2019-02-27T10:24:18.322Z,76.70
2019-02-27T10:26:53.548Z,76.60
2019-02-27T10:29:27.515Z,77.30
2019-02-27T10:32:01.381Z,78.50
2019-02-27T10:34:36.261Z,77.70
2019-02-27T10:37:12.856Z,77.40
2019-02-27T10:39:48.801Z,80.70
2019-02-27T10:42:25.725Z,89.60
2019-02-27T10:45:01.661Z,78.80
2019-02-27T10:47:39.755Z,77.80
2019-02-27T10:50:12.960Z,77.10
2019-02-27T10:52:50.090Z,78.50
2019-02-27T10:55:26.999Z,78.00
2019-02-27T10:58:02.791Z,78.20
2019-02-27T11:00:40.373Z,77.40
2019-02-27T11:03:16.068Z,78.50
2019-02-27T11:05:54.094Z,84.30
2019-02-27T11:08:29.647Z,81.80
2019-02-27T11:11:04.833Z,81.80
2019-02-27T11:13:38.718Z,78.80
2019-02-27T11:16:12.537Z,78.90
2019-02-27T11:18:46.351Z,78.40
2019-02-27T11:21:20.515Z,78.00
2019-02-27T11:23:55.833Z,78.00
2019-02-27T11:26:32.967Z,78.70
2019-02-27T11:29:08.044Z,78.80
2019-02-27T11:31:42.318Z,79.70
2019-02-27T11:34:18.508Z,81.20
2019-02-27T11:36:53.711Z,90.00
2019-02-27T11:39:30.510Z,87.80
2019-02-27T11:42:03.125Z,90.50
2019-02-27T11:44:39.879Z,81.80
2019-02-27T11:47:13.727Z,81.40
2019-02-27T11:49:47.901Z,84.20
2019-02-27T11:52:21.404Z,81.10
2019-02-27T11:54:55.679Z,87.50
2019-02-27T11:57:30.585Z,81.30
2019-02-27T12:00:04.987Z,81.90
2019-02-27T12:02:40.589Z,84.00
2019-02-27T12:05:16.036Z,83.80
2019-02-27T12:07:51.913Z,82.00
2019-02-27T12:10:28.471Z,82.10
2019-02-27T12:13:02.096Z,82.60
2019-02-27T12:15:36.287Z,81.00
2019-02-27T12:18:11.798Z,80.90
2019-02-27T12:20:46.058Z,80.20
2019-02-27T12:23:20.732Z,80.20
2019-02-27T12:25:55.825Z,88.70
2019-02-27T12:28:29.458Z,81.30
2019-02-27T12:31:03.363Z,89.20
2019-02-27T12:33:44.550Z,80.40
2019-02-27T12:36:18.670Z,80.40
2019-02-27T12:38:51.757Z,81.70
2019-02-27T12:41:26.036Z,84.30
2019-02-27T12:43:59.768Z,90.80
2019-02-27T12:46:37.001Z,91.70
2019-02-27T12:49:11.136Z,86.10
2019-02-27T12:51:45.151Z,87.80
2019-02-27T12:54:18.681Z,85.30
2019-02-27T12:56:52.640Z,90.40
2019-02-27T12:59:26.308Z,84.20
2019-02-27T13:02:08.105Z,90.60
2019-02-27T13:04:35.715Z,84.10
2019-02-27T13:07:10.728Z,81.90
2019-02-27T13:09:46.969Z,80.80
2019-02-27T13:12:24.004Z,80.40
2019-02-27T13:14:59.466Z,81.40
2019-02-27T13:17:33.100Z,80.40
2019-02-27T13:20:09.076Z,79.40
2019-02-27T13:22:44.488Z,81.20
2019-02-27T13:25:21.312Z,79.50
2019-02-27T13:27:53.487Z,84.70
2019-02-27T13:30:29.440Z,79.00
2019-02-27T13:33:03.970Z,85.20
2019-02-27T13:35:38.811Z,79.60
2019-02-27T13:38:17.467Z,79.50
2019-02-27T13:40:50.083Z,92.10
2019-02-27T13:43:27.130Z,90.50
2019-02-27T13:46:04.480Z,93.20
2019-02-27T13:48:44.171Z,81.60
2019-02-27T13:51:29.623Z,89.30
2019-02-27T13:54:06.559Z,93.40
2019-02-27T13:56:55.068Z,80.90
2019-02-27T13:59:35.852Z,83.40
2019-02-27T14:02:11.350Z,82.40
2019-02-27T14:04:53.854Z,82.10
2019-02-27T14:07:29.817Z,92.20
2019-02-27T14:10:17.156Z,91.20
2019-02-27T14:12:54.628Z,92.50
2019-02-27T14:15:44.629Z,84.10
2019-02-27T14:18:25.462Z,84.70
2019-02-27T14:21:01.764Z,83.20
2019-02-27T14:26:33.518Z,82.40
2019-02-27T14:29:09.221Z,83.40
2019-02-27T14:31:50.601Z,82.90
2019-02-27T14:34:40.261Z,82.30
2019-02-27T14:37:21.932Z,81.40
2019-02-27T14:40:01.037Z,81.70
2019-02-27T14:42:35.946Z,82.90
2019-02-27T14:45:30.083Z,81.50
2019-02-27T14:51:12.952Z,82.80
2019-02-27T14:56:54.777Z,86.10
2019-02-27T14:59:36.235Z,82.30
2019-02-27T15:05:24.433Z,80.70
2019-02-27T15:08:09.485Z,80.30
2019-02-27T15:10:51.239Z,82.00
2019-02-27T15:13:29.368Z,84.90
2019-02-27T15:16:07.483Z,92.40
2019-02-27T15:18:59.261Z,84.40
2019-02-27T15:21:47.362Z,84.80
2019-02-27T15:24:26.309Z,86.40
2019-02-27T15:27:19.527Z,92.70
2019-02-27T15:30:14.169Z,83.60
2019-02-27T15:32:54.303Z,83.30
2019-02-27T15:35:34.078Z,83.70
2019-02-27T15:38:22.687Z,84.00
2019-02-27T15:41:02.605Z,84.80
2019-02-27T15:43:40.759Z,92.50
2019-02-27T15:46:26.965Z,84.60
2019-02-27T15:49:19.260Z,91.20
2019-02-27T15:52:08.623Z,84.30
2019-02-27T16:06:53.837Z,91.60
2019-02-27T16:12:37.019Z,89.50
2019-02-27T16:15:20.890Z,88.60
2019-02-27T16:21:12.055Z,87.30
2019-02-27T16:23:59.811Z,94.20
2019-02-27T16:29:48.984Z,87.40
2019-02-27T16:38:43.031Z,95.80
2019-02-27T16:41:29.031Z,95.00
2019-02-27T16:44:22.792Z,93.20
2019-02-27T16:47:19.599Z,95.20
2019-02-27T16:49:57.946Z,90.10
2019-02-27T16:52:39.104Z,89.80
2019-02-27T17:04:18.377Z,92.60
2019-02-27T17:07:05.473Z,90.70
2019-02-27T17:09:52.620Z,95.10
2019-02-27T17:12:43.263Z,89.20
2019-02-27T17:15:23.256Z,89.20
2019-02-27T17:18:03.814Z,88.50
2019-02-27T17:20:46.040Z,88.40
